createdAt,value
2018-06-16T00:01:30.331Z,96614.26
2018-06-16T00:04:55.072Z,96618.67
2018-06-16T00:08:19.788Z,96617.44
2018-06-16T00:11:44.555Z,96615.07
2018-06-16T00:15:09.260Z,96615.41
2018-06-16T00:18:33.910Z,96609.95
2018-06-16T00:21:58.578Z,96609.25
2018-06-16T00:25:23.321Z,96606.89
2018-06-16T00:28:47.652Z,96608.75
2018-06-16T00:32:12.426Z,96603.25
2018-06-16T00:35:37.187Z,96600.20
2018-06-16T00:39:01.882Z,96600.70
2018-06-16T00:42:26.608Z,96603.28
2018-06-16T00:45:51.356Z,96606.79
2018-06-16T00:49:15.949Z,96601.56
2018-06-16T00:52:40.722Z,96605.67
2018-06-16T00:56:05.582Z,96600.16
2018-06-16T00:59:30.290Z,96601.17
2018-06-16T01:02:54.964Z,96600.92
2018-06-16T01:06:19.727Z,96605.51
2018-06-16T01:09:44.558Z,96602.94
2018-06-16T01:13:09.242Z,96610.58
2018-06-16T01:16:34.501Z,96609.37
2018-06-16T01:20:00.307Z,96602.16
2018-06-16T01:23:24.959Z,96596.63
2018-06-16T01:26:49.625Z,96598.93
2018-06-16T01:30:14.308Z,96601.23
2018-06-16T01:33:38.957Z,96605.28
2018-06-16T01:37:03.589Z,96602.73
2018-06-16T01:40:27.983Z,96602.33
2018-06-16T01:43:52.601Z,96604.53
2018-06-16T01:47:17.246Z,96607.63
2018-06-16T01:50:41.929Z,96599.41
2018-06-16T01:54:06.531Z,96596.48
2018-06-16T01:57:31.225Z,96592.22
2018-06-16T02:00:55.948Z,96588.91
2018-06-16T02:04:20.557Z,96593.14
2018-06-16T02:07:45.229Z,96600.78
2018-06-16T02:11:09.826Z,96604.05
2018-06-16T02:14:34.537Z,96603.39
2018-06-16T02:17:59.188Z,96608.86
2018-06-16T02:21:23.846Z,96610.52
2018-06-16T02:24:48.517Z,96600.59
2018-06-16T02:28:13.133Z,96611.01
2018-06-16T02:31:37.793Z,96605.62
2018-06-16T02:35:02.471Z,96602.88
2018-06-16T02:38:27.174Z,96603.47
2018-06-16T02:41:51.865Z,96602.41
2018-06-16T02:45:16.556Z,96598.56
2018-06-16T02:48:41.195Z,96600.22
2018-06-16T02:52:06.186Z,96600.22
2018-06-16T02:55:30.905Z,96602.41
2018-06-16T02:58:55.631Z,96604.25
2018-06-16T03:02:20.247Z,96597.61
2018-06-16T03:05:44.915Z,96591.08
2018-06-16T03:09:10.369Z,96595.13
2018-06-16T03:12:34.722Z,96601.26
2018-06-16T03:15:59.426Z,96602.63
2018-06-16T03:19:24.101Z,96606.39
2018-06-16T03:22:48.844Z,96608.66
2018-06-16T03:26:13.511Z,96611.11
2018-06-16T03:29:38.153Z,96605.95
2018-06-16T03:33:02.756Z,96610.47
2018-06-16T03:36:27.437Z,96622.98
2018-06-16T03:39:52.129Z,96617.94
2018-06-16T03:43:16.789Z,96623.79
2018-06-16T03:46:41.531Z,96617.50
2018-06-16T03:50:06.421Z,96617.66
2018-06-16T03:53:31.162Z,96620.08
2018-06-16T03:56:56.229Z,96624.13
2018-06-16T04:00:20.931Z,96627.05
2018-06-16T04:03:45.621Z,96627.31
2018-06-16T04:07:10.263Z,96619.73
2018-06-16T04:10:34.935Z,96625.13
2018-06-16T04:13:59.593Z,96625.97
2018-06-16T04:17:24.249Z,96626.71
2018-06-16T04:20:48.951Z,96626.91
2018-06-16T04:24:13.710Z,96633.70
2018-06-16T04:27:38.486Z,96631.55
2018-06-16T04:31:02.834Z,96628.67
2018-06-16T04:34:27.517Z,96628.15
2018-06-16T04:37:52.331Z,96633.69
2018-06-16T04:41:16.980Z,96638.44
2018-06-16T04:44:41.621Z,96636.05
2018-06-16T04:48:06.387Z,96636.43
2018-06-16T04:51:31.041Z,96639.91
2018-06-16T04:54:55.725Z,96627.92
2018-06-16T04:58:20.411Z,96626.21
2018-06-16T05:01:45.067Z,96627.80
2018-06-16T05:05:09.801Z,96631.72
2018-06-16T05:08:34.482Z,96626.64
2018-06-16T05:11:59.252Z,96626.17
2018-06-16T05:15:23.916Z,96626.64
2018-06-16T05:18:48.616Z,96620.75
2018-06-16T05:22:13.331Z,96612.09
2018-06-16T05:25:38.017Z,96610.99
2018-06-16T05:29:02.692Z,96616.84
2018-06-16T05:32:27.332Z,96618.49
2018-06-16T05:35:52.043Z,96618.23
2018-06-16T05:39:16.413Z,96626.45
2018-06-16T05:42:41.051Z,96615.91
2018-06-16T05:46:05.935Z,96619.88
2018-06-16T05:49:30.739Z,96617.42
2018-06-16T05:52:55.390Z,96624.05
2018-06-16T05:56:19.728Z,96636.88
2018-06-16T05:59:44.602Z,96636.77
2018-06-16T06:03:09.321Z,96629.36
2018-06-16T06:06:33.999Z,96633.63
2018-06-16T06:09:58.683Z,96636.33
2018-06-16T06:13:23.435Z,96636.80
2018-06-16T06:16:48.189Z,96644.38
2018-06-16T06:20:12.520Z,96642.99
2018-06-16T06:23:37.265Z,96639.27
2018-06-16T06:27:01.983Z,96645.42
2018-06-16T06:30:26.935Z,96647.42
2018-06-16T06:33:51.762Z,96646.73
2018-06-16T06:37:16.545Z,96653.97
2018-06-16T06:40:41.373Z,96653.77
2018-06-16T06:44:06.333Z,96653.63
2018-06-16T06:47:31.041Z,96654.50
2018-06-16T06:50:56.303Z,96655.48
2018-06-16T06:54:20.969Z,96661.70
2018-06-16T06:57:45.719Z,96661.47
2018-06-16T07:01:10.648Z,96662.17
2018-06-16T07:04:35.372Z,96656.34
2018-06-16T07:08:00.157Z,96651.92
2018-06-16T07:11:24.913Z,96647.61
2018-06-16T07:14:49.770Z,96649.58
2018-06-16T07:18:14.594Z,96652.55
2018-06-16T07:21:39.015Z,96648.05
2018-06-16T07:25:03.759Z,96647.16
2018-06-16T07:28:28.602Z,96643.05
2018-06-16T07:31:53.641Z,96637.97
2018-06-16T07:35:18.059Z,96638.94
2018-06-16T07:38:42.771Z,96640.79
2018-06-16T07:42:07.505Z,96642.63
2018-06-16T07:45:32.188Z,96644.03
2018-06-16T07:48:56.538Z,96635.91
2018-06-16T07:52:21.149Z,96641.10
2018-06-16T07:55:45.869Z,96635.23
2018-06-16T07:59:10.666Z,96644.44
2018-06-16T08:02:35.499Z,96646.09
2018-06-16T08:06:00.301Z,96637.91
2018-06-16T08:09:25.054Z,96637.59
2018-06-16T08:12:49.996Z,96635.12
2018-06-16T08:16:14.683Z,96626.69
2018-06-16T08:19:39.458Z,96625.59
2018-06-16T08:23:03.822Z,96622.84
2018-06-16T08:26:28.630Z,96620.27
2018-06-16T08:29:53.410Z,96619.78
2018-06-16T08:33:18.146Z,96626.03
2018-06-16T08:36:42.914Z,96624.66
2018-06-16T08:40:07.704Z,96622.71
2018-06-16T08:43:32.143Z,96624.91
2018-06-16T08:46:56.903Z,96627.77
2018-06-16T08:50:21.702Z,96625.10
2018-06-16T08:53:46.505Z,96628.29
2018-06-16T08:57:11.253Z,96630.52
2018-06-16T09:00:36.098Z,96639.18
2018-06-16T09:04:00.772Z,96633.44
2018-06-16T09:07:25.468Z,96642.02
2018-06-16T09:10:49.907Z,96644.97
2018-06-16T09:14:14.661Z,96645.84
2018-06-16T09:17:39.563Z,96642.55
2018-06-16T09:21:05.175Z,96647.80
2018-06-16T09:24:29.969Z,96644.98
2018-06-16T09:27:54.740Z,96638.77
2018-06-16T09:31:19.001Z,96639.55
2018-06-16T09:34:43.668Z,96647.00
2018-06-16T09:38:08.422Z,96644.54
2018-06-16T09:41:33.126Z,96642.12
2018-06-16T09:44:57.858Z,96642.11
2018-06-16T09:48:22.545Z,96638.86
2018-06-16T09:51:47.336Z,96637.90
2018-06-16T09:55:13.733Z,96643.11
2018-06-16T09:58:38.448Z,96637.11
2018-06-16T10:02:03.142Z,96639.37
2018-06-16T10:05:27.974Z,96634.04
2018-06-16T10:08:52.813Z,96642.45
2018-06-16T10:12:17.546Z,96639.89
2018-06-16T10:15:42.292Z,96647.46
2018-06-16T10:19:07.053Z,96639.05
2018-06-16T10:22:31.846Z,96646.10
2018-06-16T10:25:56.651Z,96640.28
2018-06-16T10:29:21.401Z,96645.36
2018-06-16T10:32:46.173Z,96637.88
2018-06-16T10:36:10.887Z,96626.77
2018-06-16T10:39:35.673Z,96623.89
2018-06-16T10:43:00.185Z,96625.28
2018-06-16T10:46:25.106Z,96633.36
2018-06-16T10:49:50.103Z,96626.44
2018-06-16T10:53:14.852Z,96622.94
2018-06-16T10:56:39.597Z,96617.58
2018-06-16T11:00:04.483Z,96612.33
2018-06-16T11:03:29.290Z,96614.75
2018-06-16T11:06:54.095Z,96616.39
2018-06-16T11:10:19.181Z,96615.02
2018-06-16T11:13:43.633Z,96604.80
2018-06-16T11:17:08.416Z,96605.80
2018-06-16T11:20:33.331Z,96605.84
2018-06-16T11:23:58.537Z,96596.23
2018-06-16T11:27:23.141Z,96602.20
2018-06-16T11:30:48.044Z,96595.31
2018-06-16T11:34:12.879Z,96590.53
2018-06-16T11:37:37.407Z,96583.84
2018-06-16T11:41:02.172Z,96589.86
2018-06-16T11:44:26.903Z,96589.88
2018-06-16T11:47:51.657Z,96584.94
2018-06-16T11:51:16.646Z,96579.08
2018-06-16T11:54:41.428Z,96576.44
2018-06-16T11:58:06.328Z,96573.78
2018-06-16T12:01:32.140Z,96567.48
2018-06-16T12:04:56.901Z,96565.83
2018-06-16T12:08:21.607Z,96567.34
2018-06-16T12:11:46.350Z,96563.13
2018-06-16T12:15:11.174Z,96555.54
2018-06-16T12:18:35.557Z,96562.50
2018-06-16T12:21:59.965Z,96561.31
2018-06-16T12:25:24.303Z,96551.55
2018-06-16T12:28:49.051Z,96553.02
2018-06-16T12:32:13.841Z,96556.50
2018-06-16T12:35:39.011Z,96549.88
2018-06-16T12:39:03.779Z,96543.59
2018-06-16T12:42:28.701Z,96541.59
2018-06-16T12:45:53.443Z,96536.19
2018-06-16T12:49:18.219Z,96539.22
2018-06-16T12:52:42.936Z,96533.19
2018-06-16T12:56:07.700Z,96533.84
2018-06-16T12:59:32.064Z,96537.02
2018-06-16T13:02:56.718Z,96535.30
2018-06-16T13:06:21.561Z,96534.31
2018-06-16T13:09:46.341Z,96536.30
2018-06-16T13:13:11.013Z,96532.59
2018-06-16T13:16:35.823Z,96521.94
2018-06-16T13:20:00.240Z,96514.27
2018-06-16T13:23:24.566Z,96516.96
2018-06-16T13:26:49.349Z,96513.80
2018-06-16T13:30:14.022Z,96514.38
2018-06-16T13:33:38.701Z,96510.63
2018-06-16T13:37:03.476Z,96517.56
2018-06-16T13:40:28.157Z,96511.52
2018-06-16T13:43:52.856Z,96516.20
2018-06-16T13:47:17.904Z,96509.58
2018-06-16T13:50:42.847Z,96513.74
2018-06-16T13:54:07.586Z,96517.08
2018-06-16T13:57:31.947Z,96511.95
2018-06-16T14:00:56.679Z,96515.95
2018-06-16T14:04:21.442Z,96518.09
2018-06-16T14:07:46.108Z,96517.20
2018-06-16T14:11:10.838Z,96513.64
2018-06-16T14:14:35.507Z,96527.38
2018-06-16T14:18:00.265Z,96518.26
2018-06-16T14:21:24.987Z,96522.81
2018-06-16T14:24:49.772Z,96516.34
2018-06-16T14:28:14.437Z,96517.48
2018-06-16T14:31:39.236Z,96513.48
2018-06-16T14:35:04.059Z,96519.11
2018-06-16T14:38:28.689Z,96518.47
2018-06-16T14:41:53.392Z,96517.65
2018-06-16T14:45:18.114Z,96515.78
2018-06-16T14:48:42.865Z,96511.70
2018-06-16T14:52:07.201Z,96515.31
2018-06-16T14:55:31.924Z,96515.52
2018-06-16T14:58:56.647Z,96511.19
2018-06-16T15:02:21.360Z,96507.70
2018-06-16T15:05:46.046Z,96519.56
2018-06-16T15:09:11.673Z,96511.11
2018-06-16T15:12:36.266Z,96510.27
2018-06-16T15:16:00.976Z,96509.12
2018-06-16T15:19:25.328Z,96500.30
2018-06-16T15:22:50.077Z,96501.37
2018-06-16T15:26:14.757Z,96497.92
2018-06-16T15:29:39.550Z,96502.46
2018-06-16T15:33:04.332Z,96492.88
2018-06-16T15:36:29.208Z,96493.67
2018-06-16T15:39:54.070Z,96488.72
2018-06-16T15:43:18.831Z,96493.75
2018-06-16T15:46:43.532Z,96486.80
2018-06-16T15:50:08.154Z,96484.97
2018-06-16T15:53:32.544Z,96488.77
2018-06-16T15:56:57.306Z,96487.70
2018-06-16T16:00:22.043Z,96490.58
2018-06-16T16:03:47.052Z,96487.96
2018-06-16T16:07:11.553Z,96496.49
2018-06-16T16:10:36.197Z,96492.36
2018-06-16T16:14:01.001Z,96488.70
2018-06-16T16:17:25.640Z,96489.19
2018-06-16T16:20:50.305Z,96485.95
2018-06-16T16:24:14.979Z,96483.98
2018-06-16T16:27:39.288Z,96479.88
2018-06-16T16:31:03.680Z,96490.13
2018-06-16T16:34:28.383Z,96495.25
2018-06-16T16:37:52.745Z,96489.72
2018-06-16T16:41:17.105Z,96484.17
2018-06-16T16:44:41.677Z,96489.55
2018-06-16T16:48:06.373Z,96483.59
2018-06-16T16:51:31.130Z,96485.48
2018-06-16T16:54:55.843Z,96491.25
2018-06-16T16:58:20.543Z,96489.42
2018-06-16T17:01:45.295Z,96479.28
2018-06-16T17:05:10.005Z,96481.64
2018-06-16T17:08:34.315Z,96478.27
2018-06-16T17:11:59.065Z,96480.91
2018-06-16T17:15:23.395Z,96482.25
2018-06-16T17:18:48.060Z,96483.14
2018-06-16T17:22:12.719Z,96479.31
2018-06-16T17:25:37.455Z,96481.22
2018-06-16T17:29:01.766Z,96482.66
2018-06-16T17:32:26.437Z,96483.55
2018-06-16T17:35:51.075Z,96490.98
2018-06-16T17:39:15.729Z,96485.81
2018-06-16T17:42:40.350Z,96490.17
2018-06-16T17:46:05.010Z,96492.50
2018-06-16T17:49:29.688Z,96492.31
2018-06-16T17:52:54.355Z,96502.02
2018-06-16T17:56:19.123Z,96496.11
2018-06-16T17:59:43.919Z,96498.75
2018-06-16T18:03:08.655Z,96504.97
2018-06-16T18:06:33.500Z,96499.57
2018-06-16T18:09:58.161Z,96511.09
2018-06-16T18:13:22.859Z,96518.15
2018-06-16T18:16:47.292Z,96506.69
2018-06-16T18:20:11.972Z,96518.66
2018-06-16T18:23:36.705Z,96514.02
2018-06-16T18:27:01.452Z,96513.71
2018-06-16T18:30:26.052Z,96517.49
2018-06-16T18:33:50.849Z,96522.27
2018-06-16T18:37:15.653Z,96522.42
2018-06-16T18:40:40.295Z,96523.07
2018-06-16T18:44:05.389Z,96528.48
2018-06-16T18:47:29.843Z,96527.56
2018-06-16T18:50:54.645Z,96535.13
2018-06-16T18:54:19.329Z,96531.30
2018-06-16T18:57:45.331Z,96542.45
2018-06-16T19:01:10.445Z,96547.73
2018-06-16T19:04:34.758Z,96549.78
2018-06-16T19:07:59.559Z,96543.44
2018-06-16T19:11:24.327Z,96547.36
2018-06-16T19:14:49.262Z,96553.82
2018-06-16T19:18:13.971Z,96556.47
2018-06-16T19:21:38.605Z,96556.10
2018-06-16T19:25:03.425Z,96560.01
2018-06-16T19:28:28.126Z,96559.85
2018-06-16T19:31:52.976Z,96565.72
2018-06-16T19:35:17.735Z,96567.53
2018-06-16T19:38:42.415Z,96570.13
2018-06-16T19:42:07.032Z,96577.22
2018-06-16T19:45:31.720Z,96577.87
2018-06-16T19:48:56.040Z,96584.95
2018-06-16T19:52:20.794Z,96586.36
2018-06-16T19:55:45.476Z,96596.25
2018-06-16T19:59:10.276Z,96601.92
2018-06-16T20:02:34.641Z,96604.48
2018-06-16T20:05:59.607Z,96608.05
2018-06-16T20:09:24.278Z,96614.06
2018-06-16T20:12:48.975Z,96619.55
2018-06-16T20:16:13.667Z,96621.58
2018-06-16T20:19:38.331Z,96622.47
2018-06-16T20:23:02.989Z,96631.68
2018-06-16T20:26:27.631Z,96631.98
2018-06-16T20:29:52.489Z,96631.04
2018-06-16T20:33:17.144Z,96629.91
2018-06-16T20:36:41.624Z,96632.06
2018-06-16T20:40:06.419Z,96631.70
2018-06-16T20:43:31.126Z,96630.75
2018-06-16T20:46:55.732Z,96631.68
2018-06-16T20:50:20.429Z,96634.00
2018-06-16T20:53:45.116Z,96629.84
2018-06-16T20:57:09.777Z,96624.93
2018-06-16T21:00:34.413Z,96635.03
2018-06-16T21:03:59.464Z,96633.95
2018-06-16T21:07:24.083Z,96632.76
2018-06-16T21:10:48.737Z,96632.40
2018-06-16T21:14:13.420Z,96638.55
2018-06-16T21:17:37.756Z,96640.50
2018-06-16T21:21:02.401Z,96638.84
2018-06-16T21:24:27.077Z,96638.97
2018-06-16T21:27:51.791Z,96640.78
2018-06-16T21:31:16.469Z,96644.38
2018-06-16T21:34:41.213Z,96648.61
2018-06-16T21:38:05.961Z,96649.56
2018-06-16T21:41:30.629Z,96644.09
2018-06-16T21:44:55.225Z,96647.97
2018-06-16T21:48:20.006Z,96651.72
2018-06-16T21:51:44.675Z,96650.25
2018-06-16T21:55:09.307Z,96649.50
2018-06-16T21:58:34.020Z,96649.51
2018-06-16T22:01:58.759Z,96654.91
2018-06-16T22:05:26.336Z,96652.27
2018-06-16T22:08:51.004Z,96650.89
2018-06-16T22:12:15.713Z,96648.58
2018-06-16T22:15:40.415Z,96655.84
2018-06-16T22:19:05.109Z,96655.37
2018-06-16T22:22:29.869Z,96650.72
2018-06-16T22:25:54.545Z,96656.73
2018-06-16T22:29:19.214Z,96660.46
2018-06-16T22:32:43.854Z,96665.82
2018-06-16T22:36:08.657Z,96669.77
2018-06-16T22:39:33.439Z,96670.09
2018-06-16T22:42:57.835Z,96671.19
2018-06-16T22:46:22.668Z,96675.83
2018-06-16T22:49:47.587Z,96674.77
2018-06-16T22:53:12.431Z,96672.98
2018-06-16T22:56:37.196Z,96671.63
2018-06-16T23:00:02.029Z,96674.00
2018-06-16T23:03:26.770Z,96681.59
2018-06-16T23:06:51.411Z,96672.07
2018-06-16T23:10:16.090Z,96674.41
2018-06-16T23:13:40.747Z,96672.40
2018-06-16T23:17:05.588Z,96666.81
2018-06-16T23:20:30.356Z,96669.41
2018-06-16T23:23:55.117Z,96673.05
2018-06-16T23:27:19.799Z,96684.61
2018-06-16T23:30:44.520Z,96669.46
2018-06-16T23:34:09.175Z,96671.14
2018-06-16T23:37:33.883Z,96670.34
2018-06-16T23:40:58.828Z,96676.41
2018-06-16T23:44:23.499Z,96687.97
2018-06-16T23:47:48.141Z,96695.97
2018-06-16T23:51:12.495Z,96691.41
2018-06-16T23:54:37.141Z,96692.53
2018-06-16T23:58:01.845Z,96698.84
